Observation data for Aspermont on 06/16/2019      Previous  Date  Next       Current Mesonet Observations  Soil Data  Daily Summary Page  Observations in Plain Language
KASR 160500Z 33004KT 20/19 A2979 RMK A01 T02030189  RH  094%=      5-min Rain = 0
KASR 160505Z 32008KT 20/19 A298 RMK A01 T02020188  RH  094%=      5-min Rain = 0
KASR 160510Z 33007KT 20/19 A2981 RMK A01 T02010185  RH  093%=      5-min Rain = 0
KASR 160515Z 33003KT 20/18 A2981 RMK A01 T01980183  RH  093%=      5-min Rain = 0
KASR 160520Z 00002KT 20/18 A2981 RMK A01 T01980184  RH  094%=      5-min Rain = 0
KASR 160525Z 00001KT 20/18 A2981 RMK A01 T01980184  RH  094%=      5-min Rain = 0
KASR 160530Z 36000KT 20/18 A2981 RMK A01 T01980184  RH  094%=      5-min Rain = 0
KASR 160535Z 13001KT 20/19 A2981 RMK A01 T01970185  RH  095%=      5-min Rain = 0
KASR 160540Z 13000KT 20/19 A2981 RMK A01 T01960185  RH  096%=      5-min Rain = 0
KASR 160545Z 02002KT 20/19 A2981 RMK A01 T01960185  RH  096%=      5-min Rain = 0
KASR 160550Z 04004KT 20/18 A2982 RMK A01 T01950184  RH  096%=      5-min Rain = 0
KASR 160555Z 02002KT 19/18 A2982 RMK A01 T01930183  RH  097%=      5-min Rain = 0
KASR 160600Z 36001KT 19/18 A2981 RMK A01 T01930183  RH  096%=      5-min Rain = 0
KASR 160605Z 10005KT 19/18 A2982 RMK A01 T01940184  RH  097%=      5-min Rain = 0
KASR 160610Z 10005KT 19/18 A2982 RMK A01 T01920184  RH  097%=      5-min Rain = 0
KASR 160615Z 05003KT 19/18 A2982 RMK A01 T01920182  RH  096%=      5-min Rain = 0
KASR 160620Z 03004KT 19/18 A2983 RMK A01 T01910180  RH  095%=      5-min Rain = 0
KASR 160625Z 01006KT 19/18 A2984 RMK A01 T01900179  RH  096%=      5-min Rain = 0
KASR 160630Z 01007KT 19/18 A2984 RMK A01 T01900177  RH  095%=      5-min Rain = 0
KASR 160635Z 00007KT 19/18 A2985 RMK A01 T01900176  RH  094%=      5-min Rain = 0
KASR 160640Z 01007KT 19/18 A2986 RMK A01 T01900175  RH  093%=      5-min Rain = 0
KASR 160645Z 01006KT 19/17 A2986 RMK A01 T01890171  RH  091%=      5-min Rain = 0
KASR 160650Z 03006KT 19/17 A2986 RMK A01 T01890170  RH  091%=      5-min Rain = 0
KASR 160655Z 03006KT 19/17 A2987 RMK A01 T01880169  RH  091%=      5-min Rain = 0
KASR 160700Z 01007KT 19/17 A2987 RMK A01 T01880168  RH  090%=      5-min Rain = 0
KASR 160705Z 00007G12KT 19/17 A2987 RMK A01 T01870167  RH  090%=      5-min Rain = 0
KASR 160710Z 02008KT 19/17 A2987 RMK A01 T01880167  RH  089%=      5-min Rain = 0
KASR 160715Z 03006KT 19/17 A2987 RMK A01 T01880166  RH  089%=      5-min Rain = 0
KASR 160720Z 03005KT 19/17 A2987 RMK A01 T01880167  RH  089%=      5-min Rain = 0
KASR 160725Z 02005KT 19/17 A2987 RMK A01 T01870167  RH  090%=      5-min Rain = 0
KASR 160730Z 04004KT 19/17 A2986 RMK A01 T01860167  RH  091%=      5-min Rain = 0
KASR 160735Z 35007KT 18/17 A2987 RMK A01 T01830166  RH  092%=      5-min Rain = 0
KASR 160740Z 35006KT 18/17 A2987 RMK A01 T01820167  RH  093%=      5-min Rain = 0
KASR 160745Z 00005KT 18/17 A2987 RMK A01 T01820167  RH  093%=      5-min Rain = 0
KASR 160750Z 35003KT 18/17 A2987 RMK A01 T01820166  RH  092%=      5-min Rain = 0
KASR 160755Z 06001KT 18/17 A2987 RMK A01 T01820167  RH  093%=      5-min Rain = 0
KASR 160800Z 04001KT 18/17 A2987 RMK A01 T01820167  RH  093%=      5-min Rain = 0
KASR 160805Z 35004KT 18/17 A2987 RMK A01 T01810167  RH  093%=      5-min Rain = 0
KASR 160810Z 35006KT 18/17 A2986 RMK A01 T01800165  RH  093%=      5-min Rain = 0
KASR 160815Z 03002KT 18/17 A2986 RMK A01 T01790167  RH  094%=      5-min Rain = 0
KASR 160820Z 27006KT 18/17 A2986 RMK A01 T01790166  RH  095%=      5-min Rain = 0
KASR 160825Z 30007KT 18/17 A2986 RMK A01 T01790167  RH  095%=      5-min Rain = 0
KASR 160830Z 34008KT 18/17 A2986 RMK A01 T01810168  RH  094%=      5-min Rain = 0
KASR 160835Z 36006KT 18/17 A2985 RMK A01 T01820167  RH  093%=      5-min Rain = 0
KASR 160840Z 33005KT 18/17 A2986 RMK A01 T01800166  RH  094%=      5-min Rain = 0
KASR 160845Z 31001KT 18/17 A2986 RMK A01 T01800167  RH  094%=      5-min Rain = 0
KASR 160850Z 35000KT 18/17 A2986 RMK A01 T01800167  RH  095%=      5-min Rain = 0
KASR 160855Z 04002KT 18/17 A2986 RMK A01 T01780166  RH  095%=      5-min Rain = 0
KASR 160900Z 04001KT 18/17 A2986 RMK A01 T01760166  RH  096%=      5-min Rain = 0
KASR 160905Z 07002KT 18/17 A2985 RMK A01 T01750166  RH  096%=      5-min Rain = 0
KASR 160910Z 05002KT 17/17 A2985 RMK A01 T01740165  RH  097%=      5-min Rain = 0
KASR 160915Z 06002KT 17/16 A2985 RMK A01 T01730164  RH  097%=      5-min Rain = 0
KASR 160920Z 10004KT 17/17 A2985 RMK A01 T01720165  RH  097%=      5-min Rain = 0
KASR 160925Z 11003KT 17/17 A2985 RMK A01 T01730165  RH  097%=      5-min Rain = 0
KASR 160930Z 14004KT 17/17 A2985 RMK A01 T01730165  RH  097%=      5-min Rain = 0
KASR 160935Z 15002KT 17/17 A2986 RMK A01 T01740166  RH  098%=      5-min Rain = 0
KASR 160940Z 15001KT 17/17 A2986 RMK A01 T01740167  RH  098%=      5-min Rain = 0
KASR 160945Z 15000KT 17/17 A2986 RMK A01 T01730166  RH  098%=      5-min Rain = 0
KASR 160950Z 00001KT 17/17 A2986 RMK A01 T01730166  RH  098%=      5-min Rain = 0
KASR 160955Z 00000KT 17/17 A2986 RMK A01 T01720166  RH  098%=      5-min Rain = 0
KASR 161000Z 32001KT 17/17 A2987 RMK A01 T01720166  RH  098%=      5-min Rain = 0
KASR 161005Z 29001KT 17/16 A2987 RMK A01 T01710164  RH  098%=      5-min Rain = 0
KASR 161010Z 29001KT 17/17 A2987 RMK A01 T01710165  RH  098%=      5-min Rain = 0
KASR 161015Z 06002KT 17/16 A2987 RMK A01 T01690163  RH  098%=      5-min Rain = 0
KASR 161020Z 06001KT 17/16 A2987 RMK A01 T01690163  RH  099%=      5-min Rain = 0
KASR 161025Z 29002KT 17/16 A2987 RMK A01 T01680163  RH  099%=      5-min Rain = 0
KASR 161030Z 02002KT 17/16 A2987 RMK A01 T01680163  RH  099%=      5-min Rain = 0
KASR 161035Z 02003KT 17/16 A2987 RMK A01 T01680163  RH  099%=      5-min Rain = 0
KASR 161040Z 32004KT 17/16 A2988 RMK A01 T01670162  RH  099%=      5-min Rain = 0
KASR 161045Z 33002KT 17/16 A2988 RMK A01 T01680164  RH  099%=      5-min Rain = 0
KASR 161050Z 01003KT 17/17 A2987 RMK A01 T01700165  RH  099%=      5-min Rain = 0
KASR 161055Z 01004KT 17/17 A2987 RMK A01 T01700166  RH  099%=      5-min Rain = 0
KASR 161100Z 01002KT 17/17 A2987 RMK A01 T01710166  RH  100%=      5-min Rain = 0
KASR 161105Z 35001KT 17/17 A2987 RMK A01 T01710167  RH  099%=      5-min Rain = 0
KASR 161110Z 34000KT 17/17 A2987 RMK A01 T01710167  RH  099%=      5-min Rain = 0
KASR 161115Z 35001KT 17/17 A2987 RMK A01 T01710167  RH  099%=      5-min Rain = 0
KASR 161120Z 00002KT 17/17 A2987 RMK A01 T01710166  RH  099%=      5-min Rain = 0
KASR 161125Z 06003KT 17/17 A2987 RMK A01 T01700165  RH  100%=      5-min Rain = 0
KASR 161130Z 06002KT 17/17 A2987 RMK A01 T01690165  RH  100%=      5-min Rain = 0
KASR 161135Z 06002KT 17/17 A2987 RMK A01 T01690165  RH  100%=      5-min Rain = 0
KASR 161140Z 05002KT 17/16 A2987 RMK A01 T01680164  RH  100%=      5-min Rain = 0
KASR 161145Z 07002KT 17/17 A2988 RMK A01 T01690165  RH  100%=      5-min Rain = 0
KASR 161150Z 07002KT 17/17 A2988 RMK A01 T01690165  RH  100%=      5-min Rain = 0
KASR 161155Z 05002KT 17/16 A2989 RMK A01 T01680164  RH  100%=      5-min Rain = 0
KASR 161200Z 04001KT 17/17 A2989 RMK A01 T01690165  RH  100%=      5-min Rain = 0
KASR 161205Z 04001KT 17/17 A2989 RMK A01 T01700166  RH  100%=      5-min Rain = 0
KASR 161210Z 02001KT 17/17 A299 RMK A01 T01710167  RH  100%=      5-min Rain = 0
KASR 161215Z 33002KT 18/17 A299 RMK A01 T01750171  RH  100%=      5-min Rain = 0
KASR 161220Z 31001KT 18/17 A299 RMK A01 T01770173  RH  100%=      5-min Rain = 0
KASR 161225Z 33001KT 18/18 A299 RMK A01 T01800176  RH  100%=      5-min Rain = 0
KASR 161230Z 34002KT 18/18 A299 RMK A01 T01820178  RH  100%=      5-min Rain = 0
KASR 161235Z 34002KT 19/18 A299 RMK A01 T01850180  RH  100%=      5-min Rain = 0
KASR 161240Z 32001KT 19/18 A299 RMK A01 T01870181  RH  099%=      5-min Rain = 0
KASR 161245Z 33001KT 19/18 A299 RMK A01 T01880181  RH  098%=      5-min Rain = 0
KASR 161250Z 32001KT 19/18 A2989 RMK A01 T01880179  RH  097%=      5-min Rain = 0
KASR 161255Z 35001KT 19/18 A2989 RMK A01 T01880178  RH  096%=      5-min Rain = 0
KASR 161300Z 03001KT 19/18 A2989 RMK A01 T01900179  RH  096%=      5-min Rain = 0
KASR 161305Z 00000KT 19/18 A2989 RMK A01 T01910180  RH  096%=      5-min Rain = 0
KASR 161310Z 36002KT 19/18 A299 RMK A01 T01930181  RH  095%=      5-min Rain = 0
KASR 161315Z 00003KT 20/18 A299 RMK A01 T01950183  RH  095%=      5-min Rain = 0
KASR 161320Z 00002KT 20/18 A299 RMK A01 T01960184  RH  095%=      5-min Rain = 0
KASR 161325Z 36003KT 20/19 A299 RMK A01 T01990187  RH  095%=      5-min Rain = 0
KASR 161330Z 35003KT 20/19 A299 RMK A01 T02010188  RH  094%=      5-min Rain = 0
KASR 161335Z 35004KT 20/19 A299 RMK A01 T02020187  RH  093%=      5-min Rain = 0
KASR 161340Z 35005KT 20/19 A2991 RMK A01 T02040186  RH  092%=      5-min Rain = 0
KASR 161345Z 36004KT 21/19 A2991 RMK A01 T02060185  RH  090%=      5-min Rain = 0
KASR 161350Z 00004KT 21/19 A2991 RMK A01 T02090187  RH  089%=      5-min Rain = 0
KASR 161355Z 35006KT 21/19 A2991 RMK A01 T02100190  RH  091%=      5-min Rain = 0
KASR 161400Z 35007KT 21/19 A2991 RMK A01 T02080188  RH  090%=      5-min Rain = 0
KASR 161405Z 35007KT 21/19 A2991 RMK A01 T02080188  RH  091%=      5-min Rain = 0
KASR 161410Z 35007KT 21/19 A2991 RMK A01 T02080188  RH  090%=      5-min Rain = 0
KASR 161415Z 00005KT 21/19 A2991 RMK A01 T02090190  RH  091%=      5-min Rain = 0
KASR 161420Z 01005KT 21/19 A2991 RMK A01 T02130189  RH  089%=      5-min Rain = 0
KASR 161425Z 03004KT 22/19 A2991 RMK A01 T02180185  RH  084%=      5-min Rain = 0
KASR 161430Z 04004KT 22/18 A299 RMK A01 T02200184  RH  082%=      5-min Rain = 0
KASR 161435Z 05004KT 22/19 A299 RMK A01 T02230187  RH  082%=      5-min Rain = 0
KASR 161440Z 05005KT 23/19 A299 RMK A01 T02270186  RH  080%=      5-min Rain = 0
KASR 161445Z 05005KT 23/18 A299 RMK A01 T02270184  RH  078%=      5-min Rain = 0
KASR 161450Z 06005KT 23/19 A299 RMK A01 T02300187  RH  079%=      5-min Rain = 0
KASR 161455Z 05005KT 23/19 A299 RMK A01 T02300187  RH  079%=      5-min Rain = 0
KASR 161500Z 08005KT 23/19 A299 RMK A01 T02340190  RH  079%=      5-min Rain = 0
KASR 161505Z 07004KT 24/19 A299 RMK A01 T02360189  RH  077%=      5-min Rain = 0
KASR 161510Z 09004KT 24/19 A299 RMK A01 T02390191  RH  077%=      5-min Rain = 0
KASR 161515Z 07005KT 24/19 A299 RMK A01 T02360188  RH  076%=      5-min Rain = 0
KASR 161520Z 08004KT 24/19 A299 RMK A01 T02400194  RH  078%=      5-min Rain = 0
KASR 161525Z 05004KT 25/20 A299 RMK A01 T02450195  RH  076%=      5-min Rain = 0
KASR 161530Z 08004KT 24/19 A299 RMK A01 T02430193  RH  076%=      5-min Rain = 0
KASR 161535Z 04005KT 24/19 A2991 RMK A01 T02390193  RH  077%=      5-min Rain = 0
KASR 161540Z 02005KT 24/20 A2991 RMK A01 T02410196  RH  078%=      5-min Rain = 0
KASR 161545Z 02006KT 24/20 A2991 RMK A01 T02400195  RH  078%=      5-min Rain = 0
KASR 161550Z 02007KT 24/19 A2991 RMK A01 T02380194  RH  079%=      5-min Rain = 0
KASR 161555Z 01007KT 24/20 A2991 RMK A01 T02380196  RH  079%=      5-min Rain = 0
KASR 161600Z 03006KT 24/20 A2992 RMK A01 T02380195  RH  079%=      5-min Rain = 0
KASR 161605Z 03006KT 24/20 A2992 RMK A01 T02370196  RH  080%=      5-min Rain = 0
KASR 161610Z 02007G12KT 24/20 A2993 RMK A01 T02360195  RH  080%=      5-min Rain = 0
KASR 161615Z 02009KT 23/19 A2993 RMK A01 T02310187  RH  078%=      5-min Rain = 0
KASR 161620Z 02007KT 23/19 A2993 RMK A01 T02290186  RH  079%=      5-min Rain = 0
KASR 161625Z 02009G14KT 23/18 A2993 RMK A01 T02300184  RH  077%=      5-min Rain = 0
KASR 161630Z 02010KT 23/18 A2993 RMK A01 T02290183  RH  077%=      5-min Rain = 0
KASR 161635Z 03010KT 23/18 A2993 RMK A01 T02290181  RH  076%=      5-min Rain = 0
KASR 161640Z 03010KT 23/18 A2993 RMK A01 T02290182  RH  076%=      5-min Rain = 0
KASR 161645Z 03009KT 24/19 A2993 RMK A01 T02350185  RH  076%=      5-min Rain = 0
KASR 161650Z 03008KT 24/19 A2993 RMK A01 T02400188  RH  075%=      5-min Rain = 0
KASR 161655Z 03010KT 24/19 A2993 RMK A01 T02420190  RH  075%=      5-min Rain = 0
KASR 161700Z 03008KT 24/19 A2993 RMK A01 T02440192  RH  075%=      5-min Rain = 0
KASR 161705Z 03010KT 24/19 A2993 RMK A01 T02410186  RH  073%=      5-min Rain = 0
KASR 161710Z 02010G15KT 24/18 A2993 RMK A01 T02370182  RH  073%=      5-min Rain = 0
KASR 161715Z 03010KT 24/18 A2993 RMK A01 T02350180  RH  073%=      5-min Rain = 0
KASR 161720Z 03009KT 24/18 A2993 RMK A01 T02350181  RH  074%=      5-min Rain = 0
KASR 161725Z 03009G14KT 24/18 A2993 RMK A01 T02390183  RH  073%=      5-min Rain = 0
KASR 161730Z 02009KT 24/18 A2992 RMK A01 T02410184  RH  073%=      5-min Rain = 0
KASR 161735Z 03009KT 24/19 A2992 RMK A01 T02440185  RH  072%=      5-min Rain = 0
KASR 161740Z 03010KT 24/19 A2992 RMK A01 T02430185  RH  072%=      5-min Rain = 0
KASR 161745Z 01010KT 24/19 A2992 RMK A01 T02440185  RH  071%=      5-min Rain = 0
KASR 161750Z 01009G14KT 24/19 A2992 RMK A01 T02440185  RH  071%=      5-min Rain = 0
KASR 161755Z 01010KT 25/18 A2991 RMK A01 T02460184  RH  070%=      5-min Rain = 0
KASR 161800Z 01010KT 25/19 A2991 RMK A01 T02500187  RH  070%=      5-min Rain = 0
KASR 161805Z 01009KT 25/19 A2991 RMK A01 T02520187  RH  069%=      5-min Rain = 0
KASR 161810Z 02010KT 25/19 A299 RMK A01 T02510186  RH  069%=      5-min Rain = 0
KASR 161815Z 01010KT 25/19 A299 RMK A01 T02540186  RH  068%=      5-min Rain = 0
KASR 161820Z 01009G14KT 26/19 A299 RMK A01 T02550186  RH  068%=      5-min Rain = 0
KASR 161825Z 01009KT 26/19 A299 RMK A01 T02550188  RH  068%=      5-min Rain = 0
KASR 161830Z 35010KT 26/19 A2989 RMK A01 T02580188  RH  067%=      5-min Rain = 0
KASR 161835Z 35011KT 26/19 A2989 RMK A01 T02610190  RH  067%=      5-min Rain = 0
KASR 161840Z 00010KT 26/19 A2988 RMK A01 T02610191  RH  067%=      5-min Rain = 0
KASR 161845Z 36009G14KT 26/19 A2988 RMK A01 T02620191  RH  067%=      5-min Rain = 0
KASR 161850Z 00011KT 27/19 A2989 RMK A01 T02650194  RH  067%=      5-min Rain = 0
KASR 161855Z 01009KT 27/19 A2989 RMK A01 T02650194  RH  067%=      5-min Rain = 0
KASR 161900Z 36011G16KT 27/19 A2989 RMK A01 T02680193  RH  065%=      5-min Rain = 0
KASR 161905Z 01010KT 27/19 A2989 RMK A01 T02680193  RH  065%=      5-min Rain = 0
KASR 161910Z 01009KT 27/19 A2989 RMK A01 T02670192  RH  065%=      5-min Rain = 0
KASR 161915Z 36010KT 27/19 A2989 RMK A01 T02710190  RH  063%=      5-min Rain = 0
KASR 161920Z 35011KT 27/19 A2989 RMK A01 T02730188  RH  061%=      5-min Rain = 0
KASR 161925Z 35011G16KT 27/19 A2988 RMK A01 T02740190  RH  062%=      5-min Rain = 0
KASR 161930Z 01009KT 27/19 A2988 RMK A01 T02730193  RH  063%=      5-min Rain = 0
KASR 161935Z 01009KT 28/19 A2988 RMK A01 T02750193  RH  063%=      5-min Rain = 0
KASR 161940Z 01009KT 28/20 A2988 RMK A01 T02760197  RH  064%=      5-min Rain = 0
KASR 161945Z 01010KT 28/19 A2988 RMK A01 T02760194  RH  063%=      5-min Rain = 0
KASR 161950Z 03008G13KT 27/20 A2987 RMK A01 T02730196  RH  065%=      5-min Rain = 0
KASR 161955Z 03008KT 28/20 A2987 RMK A01 T02750197  RH  064%=      5-min Rain = 0
KASR 162000Z 02008G14KT 28/20 A2987 RMK A01 T02780201  RH  065%=      5-min Rain = 0
KASR 162005Z 01007G12KT 28/20 A2988 RMK A01 T02790199  RH  063%=      5-min Rain = 0
KASR 162010Z 02007KT 28/20 A2987 RMK A01 T02800200  RH  064%=      5-min Rain = 0
KASR 162015Z 02007G12KT 28/20 A2987 RMK A01 T02810200  RH  063%=      5-min Rain = 0
KASR 162020Z 03008KT 28/20 A2987 RMK A01 T02800199  RH  063%=      5-min Rain = 0
KASR 162025Z 02007KT 28/20 A2987 RMK A01 T02790196  RH  062%=      5-min Rain = 0
KASR 162030Z 04008KT 28/20 A2987 RMK A01 T02800200  RH  063%=      5-min Rain = 0
KASR 162035Z 03008G14KT 28/20 A2987 RMK A01 T02770197  RH  063%=      5-min Rain = 0
KASR 162040Z 01010KT 28/20 A2987 RMK A01 T02750195  RH  063%=      5-min Rain = 0
KASR 162045Z 03008KT 28/20 A2987 RMK A01 T02750198  RH  064%=      5-min Rain = 0
KASR 162050Z 04009KT 27/19 A2988 RMK A01 T02720194  RH  064%=      5-min Rain = 0
KASR 162055Z 04009KT 27/20 A2988 RMK A01 T02730195  RH  064%=      5-min Rain = 0
KASR 162100Z 04007KT 27/19 A2988 RMK A01 T02730194  RH  064%=      5-min Rain = 0
KASR 162105Z 02006G11KT 28/19 A2988 RMK A01 T02770194  RH  062%=      5-min Rain = 0
KASR 162110Z 04005KT 28/19 A2987 RMK A01 T02770192  RH  061%=      5-min Rain = 0
KASR 162115Z 04005G10KT 28/19 A2987 RMK A01 T02770194  RH  062%=      5-min Rain = 0
KASR 162120Z 02006KT 28/19 A2987 RMK A01 T02790193  RH  061%=      5-min Rain = 0
KASR 162125Z 03006KT 28/20 A2987 RMK A01 T02800195  RH  062%=      5-min Rain = 0
KASR 162130Z 03005G10KT 28/20 A2987 RMK A01 T02800196  RH  062%=      5-min Rain = 0
KASR 162135Z 05006G13KT 28/20 A2987 RMK A01 T02830200  RH  063%=      5-min Rain = 0
KASR 162140Z 06006KT 28/20 A2987 RMK A01 T02780196  RH  063%=      5-min Rain = 0
KASR 162145Z 06006KT 28/20 A2986 RMK A01 T02800198  RH  063%=      5-min Rain = 0
KASR 162150Z 05006KT 28/20 A2986 RMK A01 T02800196  RH  062%=      5-min Rain = 0
KASR 162155Z 04006KT 28/20 A2986 RMK A01 T02800195  RH  061%=      5-min Rain = 0
KASR 162200Z 06005KT 28/20 A2986 RMK A01 T02820197  RH  062%=      5-min Rain = 0
KASR 162205Z 05005KT 29/20 A2986 RMK A01 T02850202  RH  062%=      5-min Rain = 0
KASR 162210Z 05006KT 28/20 A2986 RMK A01 T02830197  RH  061%=      5-min Rain = 0
KASR 162215Z 09004KT 28/20 A2985 RMK A01 T02840202  RH  063%=      5-min Rain = 0
KASR 162220Z 07006KT 29/20 A2985 RMK A01 T02850200  RH  062%=      5-min Rain = 0
KASR 162225Z 06004KT 28/20 A2985 RMK A01 T02830198  RH  062%=      5-min Rain = 0
KASR 162230Z 05003KT 29/20 A2985 RMK A01 T02870201  RH  061%=      5-min Rain = 0
KASR 162235Z 07005KT 29/20 A2985 RMK A01 T02870200  RH  061%=      5-min Rain = 0
KASR 162240Z 06006G11KT 29/20 A2985 RMK A01 T02860202  RH  062%=      5-min Rain = 0
KASR 162245Z 06005KT 28/20 A2985 RMK A01 T02840197  RH  061%=      5-min Rain = 0
KASR 162250Z 06006KT 29/20 A2985 RMK A01 T02850201  RH  062%=      5-min Rain = 0
KASR 162255Z 05005KT 28/20 A2985 RMK A01 T02810200  RH  063%=      5-min Rain = 0
KASR 162300Z 05006G11KT 29/20 A2985 RMK A01 T02850202  RH  063%=      5-min Rain = 0
KASR 162305Z 06007KT 28/20 A2985 RMK A01 T02840199  RH  062%=      5-min Rain = 0
KASR 162310Z 05006KT 28/20 A2985 RMK A01 T02830197  RH  061%=      5-min Rain = 0
KASR 162315Z 03006KT 28/20 A2985 RMK A01 T02840197  RH  061%=      5-min Rain = 0
KASR 162320Z 05007G12KT 28/20 A2985 RMK A01 T02830195  RH  061%=      5-min Rain = 0
KASR 162325Z 06008KT 28/19 A2985 RMK A01 T02820194  RH  061%=      5-min Rain = 0
KASR 162330Z 05008KT 28/20 A2984 RMK A01 T02800196  RH  062%=      5-min Rain = 0
KASR 162335Z 05005G10KT 28/20 A2985 RMK A01 T02810196  RH  062%=      5-min Rain = 0
KASR 162340Z 05006KT 28/20 A2985 RMK A01 T02820196  RH  061%=      5-min Rain = 0
KASR 162345Z 03008G13KT 28/19 A2985 RMK A01 T02800193  RH  061%=      5-min Rain = 0
KASR 162350Z 03008KT 28/19 A2985 RMK A01 T02780190  RH  060%=      5-min Rain = 0
KASR 162355Z 02008KT 28/19 A2985 RMK A01 T02780190  RH  060%=      5-min Rain = 0
KASR 170000Z 04008KT 28/19 A2985 RMK A01 T02770188  RH  060%=      5-min Rain = 0
KASR 170005Z 04008KT 28/19 A2985 RMK A01 T02760186  RH  059%=      5-min Rain = 0
KASR 170010Z 03007KT 28/19 A2985 RMK A01 T02750187  RH  060%=      5-min Rain = 0
KASR 170015Z 03008KT 27/19 A2985 RMK A01 T02740185  RH  060%=      5-min Rain = 0
KASR 170020Z 04007KT 27/19 A2985 RMK A01 T02730186  RH  060%=      5-min Rain = 0
KASR 170025Z 04006KT 27/19 A2985 RMK A01 T02730185  RH  060%=      5-min Rain = 0
KASR 170030Z 04006KT 27/19 A2985 RMK A01 T02730187  RH  061%=      5-min Rain = 0
KASR 170035Z 04006KT 27/19 A2986 RMK A01 T02720185  RH  061%=      5-min Rain = 0
KASR 170040Z 03006KT 27/18 A2986 RMK A01 T02710184  RH  060%=      5-min Rain = 0
KASR 170045Z 03005KT 27/19 A2986 RMK A01 T02700186  RH  062%=      5-min Rain = 0
KASR 170050Z 04005KT 27/19 A2986 RMK A01 T02680190  RH  064%=      5-min Rain = 0
KASR 170055Z 04005KT 27/19 A2986 RMK A01 T02670188  RH  064%=      5-min Rain = 0
KASR 170100Z 04004KT 27/19 A2986 RMK A01 T02650191  RH  065%=      5-min Rain = 0
KASR 170105Z 03006KT 26/19 A2986 RMK A01 T02630186  RH  064%=      5-min Rain = 0
KASR 170110Z 03006KT 26/19 A2986 RMK A01 T02610187  RH  065%=      5-min Rain = 0
KASR 170115Z 03005KT 26/19 A2986 RMK A01 T02590186  RH  066%=      5-min Rain = 0
KASR 170120Z 04004KT 26/19 A2987 RMK A01 T02570186  RH  067%=      5-min Rain = 0
KASR 170125Z 04004KT 25/19 A2987 RMK A01 T02530188  RH  069%=      5-min Rain = 0
KASR 170130Z 04004KT 25/19 A2987 RMK A01 T02490189  RH  071%=      5-min Rain = 0
KASR 170135Z 04004KT 25/19 A2987 RMK A01 T02460190  RH  073%=      5-min Rain = 0
KASR 170140Z 03004KT 24/19 A2987 RMK A01 T02440191  RH  075%=      5-min Rain = 0
KASR 170145Z 04005KT 24/19 A2987 RMK A01 T02410192  RH  076%=      5-min Rain = 0
KASR 170150Z 04005KT 24/19 A2987 RMK A01 T02380192  RH  077%=      5-min Rain = 0
KASR 170155Z 03004KT 24/19 A2987 RMK A01 T02350190  RH  078%=      5-min Rain = 0
KASR 170200Z 03004KT 23/19 A2987 RMK A01 T02330189  RH  078%=      5-min Rain = 0
KASR 170205Z 04005KT 23/19 A2987 RMK A01 T02310188  RH  079%=      5-min Rain = 0
KASR 170210Z 04005KT 23/19 A2987 RMK A01 T02280188  RH  080%=      5-min Rain = 0
KASR 170215Z 04005KT 23/19 A2988 RMK A01 T02270189  RH  081%=      5-min Rain = 0
KASR 170220Z 03005KT 23/19 A2988 RMK A01 T02260187  RH  081%=      5-min Rain = 0
KASR 170225Z 03006KT 23/19 A2988 RMK A01 T02260186  RH  080%=      5-min Rain = 0
KASR 170230Z 04006KT 23/19 A2988 RMK A01 T02260185  RH  080%=      5-min Rain = 0
KASR 170235Z 03005KT 23/19 A2988 RMK A01 T02260185  RH  080%=      5-min Rain = 0
KASR 170240Z 04005KT 23/19 A2989 RMK A01 T02250185  RH  080%=      5-min Rain = 0
KASR 170245Z 04005KT 23/19 A2989 RMK A01 T02260185  RH  080%=      5-min Rain = 0
KASR 170250Z 04005KT 22/19 A2989 RMK A01 T02240186  RH  081%=      5-min Rain = 0
KASR 170255Z 05005KT 22/19 A2989 RMK A01 T02230186  RH  082%=      5-min Rain = 0
KASR 170300Z 05005KT 22/19 A2989 RMK A01 T02210186  RH  082%=      5-min Rain = 0
KASR 170305Z 05005KT 22/19 A299 RMK A01 T02200185  RH  083%=      5-min Rain = 0
KASR 170310Z 05004KT 22/19 A299 RMK A01 T02190185  RH  083%=      5-min Rain = 0
KASR 170315Z 06004KT 22/18 A299 RMK A01 T02180184  RH  083%=      5-min Rain = 0
KASR 170320Z 06004KT 22/18 A2991 RMK A01 T02170184  RH  083%=      5-min Rain = 0
KASR 170325Z 07004KT 22/18 A299 RMK A01 T02150184  RH  084%=      5-min Rain = 0
KASR 170330Z 06005KT 21/18 A2991 RMK A01 T02140184  RH  085%=      5-min Rain = 0
KASR 170335Z 06005KT 21/18 A2991 RMK A01 T02130183  RH  085%=      5-min Rain = 0
KASR 170340Z 07005KT 21/18 A2991 RMK A01 T02130183  RH  085%=      5-min Rain = 0
KASR 170345Z 06005KT 21/18 A2991 RMK A01 T02110183  RH  086%=      5-min Rain = 0
KASR 170350Z 06005KT 21/18 A2991 RMK A01 T02100183  RH  086%=      5-min Rain = 0
KASR 170355Z 06004KT 21/18 A2991 RMK A01 T02090183  RH  087%=      5-min Rain = 0
KASR 170400Z 06004KT 21/18 A2991 RMK A01 T02080182  RH  087%=      5-min Rain = 0
KASR 170405Z 05004KT 21/18 A2991 RMK A01 T02070182  RH  087%=      5-min Rain = 0
KASR 170410Z 06004KT 21/18 A2991 RMK A01 T02070181  RH  087%=      5-min Rain = 0
KASR 170415Z 05004KT 21/18 A2991 RMK A01 T02060181  RH  088%=      5-min Rain = 0
KASR 170420Z 05004KT 20/18 A2992 RMK A01 T02040181  RH  088%=      5-min Rain = 0
KASR 170425Z 05003KT 20/18 A2992 RMK A01 T02020180  RH  089%=      5-min Rain = 0
KASR 170430Z 04002KT 20/18 A2992 RMK A01 T02010180  RH  090%=      5-min Rain = 0
KASR 170435Z 03002KT 20/18 A2992 RMK A01 T02010181  RH  091%=      5-min Rain = 0
KASR 170440Z 03001KT 20/18 A2993 RMK A01 T01990181  RH  091%=      5-min Rain = 0
KASR 170445Z 03001KT 20/18 A2993 RMK A01 T01960181  RH  093%=      5-min Rain = 0
KASR 170450Z 03001KT 19/18 A2993 RMK A01 T01930180  RH  094%=      5-min Rain = 0
KASR 170455Z 03002KT 19/18 A2993 RMK A01 T01900178  RH  095%=      5-min Rain = 0

Page generated in 0.0097 seconds.